sensor_id;sensor_type;location;lat;lon;timestamp;pressure;altitude;pressure_sealevel;temperature;humidity
25869;BME280;13688;53.154;18.136;2024-03-25T00:00:36;99241.25;;;3.36;100.00
25869;BME280;13688;53.154;18.136;2024-03-25T00:06:00;99241.59;;;3.32;100.00
25869;BME280;13688;53.154;18.136;2024-03-25T00:11:22;99240.41;;;3.36;100.00
25869;BME280;13688;53.154;18.136;2024-03-25T00:16:44;99238.39;;;3.39;100.00
25869;BME280;13688;53.154;18.136;2024-03-25T00:22:07;99231.89;;;3.43;100.00
25869;BME280;13688;53.154;18.136;2024-03-25T00:27:29;99230.61;;;3.49;100.00
25869;BME280;13688;53.154;18.136;2024-03-25T00:32:51;99234.31;;;3.47;100.00
25869;BME280;13688;53.154;18.136;2024-03-25T00:38:16;99236.70;;;3.38;100.00
25869;BME280;13688;53.154;18.136;2024-03-25T00:43:38;99229.39;;;3.29;100.00
25869;BME280;13688;53.154;18.136;2024-03-25T00:49:01;99216.00;;;3.18;100.00
25869;BME280;13688;53.154;18.136;2024-03-25T00:54:24;99225.39;;;3.11;100.00
25869;BME280;13688;53.154;18.136;2024-03-25T00:59:46;99217.95;;;3.03;100.00
25869;BME280;13688;53.154;18.136;2024-03-25T01:05:10;99218.94;;;2.90;100.00
25869;BME280;13688;53.154;18.136;2024-03-25T01:10:32;99206.73;;;2.74;100.00
25869;BME280;13688;53.154;18.136;2024-03-25T01:15:55;99207.91;;;2.70;100.00
25869;BME280;13688;53.154;18.136;2024-03-25T01:21:17;99207.98;;;2.69;100.00
25869;BME280;13688;53.154;18.136;2024-03-25T01:26:40;99201.10;;;2.66;100.00
25869;BME280;13688;53.154;18.136;2024-03-25T01:32:02;99200.87;;;2.69;100.00
25869;BME280;13688;53.154;18.136;2024-03-25T01:37:24;99196.34;;;2.71;100.00
25869;BME280;13688;53.154;18.136;2024-03-25T01:43:00;99189.11;;;2.73;100.00
25869;BME280;13688;53.154;18.136;2024-03-25T01:48:23;99195.06;;;2.64;100.00
25869;BME280;13688;53.154;18.136;2024-03-25T01:53:46;99187.72;;;2.68;100.00
25869;BME280;13688;53.154;18.136;2024-03-25T01:59:09;99197.48;;;2.67;100.00
25869;BME280;13688;53.154;18.136;2024-03-25T02:04:32;99188.36;;;2.58;100.00
25869;BME280;13688;53.154;18.136;2024-03-25T02:09:56;99189.95;;;2.48;100.00
25869;BME280;13688;53.154;18.136;2024-03-25T02:15:37;99180.92;;;2.51;100.00
25869;BME280;13688;53.154;18.136;2024-03-25T02:21:05;99201.30;;;2.38;100.00
25869;BME280;13688;53.154;18.136;2024-03-25T02:26:28;99199.16;;;2.30;100.00
25869;BME280;13688;53.154;18.136;2024-03-25T02:31:50;99199.72;;;2.22;100.00
25869;BME280;13688;53.154;18.136;2024-03-25T02:37:13;99202.77;;;2.16;100.00
25869;BME280;13688;53.154;18.136;2024-03-25T02:42:36;99209.53;;;2.08;100.00
25869;BME280;13688;53.154;18.136;2024-03-25T02:47:59;99219.80;;;1.99;100.00
25869;BME280;13688;53.154;18.136;2024-03-25T02:53:21;99217.36;;;1.96;100.00
25869;BME280;13688;53.154;18.136;2024-03-25T02:58:43;99216.69;;;1.93;100.00
25869;BME280;13688;53.154;18.136;2024-03-25T03:04:06;99223.05;;;1.90;100.00
25869;BME280;13688;53.154;18.136;2024-03-25T03:09:28;99219.16;;;1.96;100.00
25869;BME280;13688;53.154;18.136;2024-03-25T03:14:51;99215.23;;;2.01;100.00
25869;BME280;13688;53.154;18.136;2024-03-25T03:20:13;99226.61;;;2.04;100.00
25869;BME280;13688;53.154;18.136;2024-03-25T03:25:36;99231.91;;;2.04;100.00
25869;BME280;13688;53.154;18.136;2024-03-25T03:30:58;99227.03;;;2.10;100.00
25869;BME280;13688;53.154;18.136;2024-03-25T03:36:24;99222.80;;;2.20;100.00
25869;BME280;13688;53.154;18.136;2024-03-25T03:41:47;99225.69;;;2.30;100.00
25869;BME280;13688;53.154;18.136;2024-03-25T03:47:10;99228.45;;;2.41;100.00
25869;BME280;13688;53.154;18.136;2024-03-25T03:52:32;99234.94;;;2.50;100.00
25869;BME280;13688;53.154;18.136;2024-03-25T03:57:54;99243.12;;;2.59;100.00
25869;BME280;13688;53.154;18.136;2024-03-25T04:03:17;99240.17;;;2.64;100.00
25869;BME280;13688;53.154;18.136;2024-03-25T04:08:40;99237.19;;;2.69;100.00
25869;BME280;13688;53.154;18.136;2024-03-25T04:14:02;99238.03;;;2.69;100.00
25869;BME280;13688;53.154;18.136;2024-03-25T04:19:26;99242.08;;;2.75;100.00
25869;BME280;13688;53.154;18.136;2024-03-25T04:24:49;99245.36;;;2.78;100.00
25869;BME280;13688;53.154;18.136;2024-03-25T04:30:12;99247.27;;;2.76;100.00
25869;BME280;13688;53.154;18.136;2024-03-25T04:35:35;99246.31;;;2.77;100.00
25869;BME280;13688;53.154;18.136;2024-03-25T04:40:57;99252.91;;;2.84;100.00
25869;BME280;13688;53.154;18.136;2024-03-25T04:46:20;99247.37;;;2.87;100.00
25869;BME280;13688;53.154;18.136;2024-03-25T04:51:42;99252.17;;;2.82;100.00
25869;BME280;13688;53.154;18.136;2024-03-25T04:57:05;99252.47;;;2.78;100.00
25869;BME280;13688;53.154;18.136;2024-03-25T05:02:28;99260.98;;;2.83;100.00
25869;BME280;13688;53.154;18.136;2024-03-25T05:07:50;99267.58;;;2.90;100.00
25869;BME280;13688;53.154;18.136;2024-03-25T05:13:13;99269.59;;;2.99;100.00
25869;BME280;13688;53.154;18.136;2024-03-25T05:18:36;99281.27;;;3.09;100.00
25869;BME280;13688;53.154;18.136;2024-03-25T05:23:58;99276.34;;;3.16;100.00
25869;BME280;13688;53.154;18.136;2024-03-25T05:29:20;99279.55;;;3.21;100.00
25869;BME280;13688;53.154;18.136;2024-03-25T05:34:43;99270.39;;;3.25;100.00
25869;BME280;13688;53.154;18.136;2024-03-25T05:40:06;99285.17;;;3.29;100.00
25869;BME280;13688;53.154;18.136;2024-03-25T05:45:29;99286.64;;;3.33;100.00
25869;BME280;13688;53.154;18.136;2024-03-25T05:51:01;99294.30;;;3.38;100.00
25869;BME280;13688;53.154;18.136;2024-03-25T05:56:25;99292.03;;;3.44;100.00
25869;BME280;13688;53.154;18.136;2024-03-25T06:01:47;99295.62;;;3.56;100.00
25869;BME280;13688;53.154;18.136;2024-03-25T06:07:09;99294.23;;;3.63;100.00
25869;BME280;13688;53.154;18.136;2024-03-25T06:12:32;99315.56;;;3.74;100.00
25869;BME280;13688;53.154;18.136;2024-03-25T06:17:55;99313.56;;;3.78;100.00
25869;BME280;13688;53.154;18.136;2024-03-25T06:23:22;99317.45;;;3.85;100.00
25869;BME280;13688;53.154;18.136;2024-03-25T06:28:45;99323.06;;;3.93;100.00
25869;BME280;13688;53.154;18.136;2024-03-25T06:34:07;99331.34;;;4.01;100.00
25869;BME280;13688;53.154;18.136;2024-03-25T06:39:41;99322.97;;;4.19;100.00
25869;BME280;13688;53.154;18.136;2024-03-25T06:45:04;99344.26;;;4.19;100.00
25869;BME280;13688;53.154;18.136;2024-03-25T06:50:27;99349.14;;;4.25;100.00
25869;BME280;13688;53.154;18.136;2024-03-25T06:55:57;99355.92;;;4.29;100.00
25869;BME280;13688;53.154;18.136;2024-03-25T07:01:20;99363.34;;;4.37;100.00
25869;BME280;13688;53.154;18.136;2024-03-25T07:06:43;99367.98;;;4.46;100.00
25869;BME280;13688;53.154;18.136;2024-03-25T07:12:06;99366.91;;;4.48;100.00
25869;BME280;13688;53.154;18.136;2024-03-25T07:17:29;99381.41;;;4.44;100.00
25869;BME280;13688;53.154;18.136;2024-03-25T07:22:52;99376.46;;;4.75;100.00
25869;BME280;13688;53.154;18.136;2024-03-25T07:28:15;99391.99;;;4.92;100.00
25869;BME280;13688;53.154;18.136;2024-03-25T07:33:39;99391.54;;;4.98;100.00
25869;BME280;13688;53.154;18.136;2024-03-25T07:39:01;99397.98;;;5.07;100.00
25869;BME280;13688;53.154;18.136;2024-03-25T07:44:24;99405.86;;;5.08;100.00
25869;BME280;13688;53.154;18.136;2024-03-25T07:49:47;99405.47;;;5.02;100.00
25869;BME280;13688;53.154;18.136;2024-03-25T07:55:09;99406.83;;;5.07;100.00
25869;BME280;13688;53.154;18.136;2024-03-25T08:00:32;99421.93;;;4.96;100.00
25869;BME280;13688;53.154;18.136;2024-03-25T08:05:55;99415.76;;;4.95;100.00
25869;BME280;13688;53.154;18.136;2024-03-25T08:11:17;99419.91;;;5.10;100.00
25869;BME280;13688;53.154;18.136;2024-03-25T08:16:41;99428.30;;;5.17;100.00
25869;BME280;13688;53.154;18.136;2024-03-25T08:22:04;99427.53;;;5.04;100.00
25869;BME280;13688;53.154;18.136;2024-03-25T08:27:26;99438.83;;;5.18;100.00
25869;BME280;13688;53.154;18.136;2024-03-25T08:32:49;99445.45;;;5.48;100.00
25869;BME280;13688;53.154;18.136;2024-03-25T08:38:12;99448.64;;;5.87;100.00
25869;BME280;13688;53.154;18.136;2024-03-25T08:43:34;99444.93;;;6.12;100.00
25869;BME280;13688;53.154;18.136;2024-03-25T08:48:57;99449.66;;;6.19;100.00
25869;BME280;13688;53.154;18.136;2024-03-25T08:54:19;99466.66;;;6.18;100.00
25869;BME280;13688;53.154;18.136;2024-03-25T08:59:42;99476.23;;;5.98;100.00
25869;BME280;13688;53.154;18.136;2024-03-25T09:05:05;99486.53;;;6.03;100.00
25869;BME280;13688;53.154;18.136;2024-03-25T09:10:28;99488.61;;;6.11;100.00
25869;BME280;13688;53.154;18.136;2024-03-25T09:16:09;99499.88;;;6.14;100.00
25869;BME280;13688;53.154;18.136;2024-03-25T09:21:32;99503.76;;;6.33;100.00
25869;BME280;13688;53.154;18.136;2024-03-25T09:26:58;99497.54;;;6.54;100.00
25869;BME280;13688;53.154;18.136;2024-03-25T09:32:21;99506.15;;;6.69;100.00
25869;BME280;13688;53.154;18.136;2024-03-25T09:37:45;99504.62;;;6.99;100.00
25869;BME280;13688;53.154;18.136;2024-03-25T09:43:13;99515.39;;;7.40;100.00
25869;BME280;13688;53.154;18.136;2024-03-25T09:48:41;99522.37;;;7.53;100.00
25869;BME280;13688;53.154;18.136;2024-03-25T09:54:05;99528.09;;;7.27;100.00
25869;BME280;13688;53.154;18.136;2024-03-25T09:59:27;99533.66;;;6.92;100.00
25869;BME280;13688;53.154;18.136;2024-03-25T10:04:52;99529.95;;;6.61;100.00
25869;BME280;13688;53.154;18.136;2024-03-25T10:10:18;99536.25;;;6.71;100.00
25869;BME280;13688;53.154;18.136;2024-03-25T10:15:40;99530.42;;;6.77;100.00
25869;BME280;13688;53.154;18.136;2024-03-25T10:21:05;99526.75;;;6.89;100.00
25869;BME280;13688;53.154;18.136;2024-03-25T10:26:35;99536.52;;;7.11;100.00
25869;BME280;13688;53.154;18.136;2024-03-25T10:32:06;99526.00;;;7.63;100.00
25869;BME280;13688;53.154;18.136;2024-03-25T10:37:32;99526.00;;;7.63;100.00
25869;BME280;13688;53.154;18.136;2024-03-25T10:43:00;99541.44;;;8.22;100.00
25869;BME280;13688;53.154;18.136;2024-03-25T10:48:31;99543.05;;;8.65;100.00
25869;BME280;13688;53.154;18.136;2024-03-25T10:53:55;99548.95;;;8.99;100.00
25869;BME280;13688;53.154;18.136;2024-03-25T10:59:19;99552.23;;;9.41;100.00
25869;BME280;13688;53.154;18.136;2024-03-25T11:04:45;99546.77;;;10.38;100.00
25869;BME280;13688;53.154;18.136;2024-03-25T11:10:10;99557.05;;;9.76;100.00
25869;BME280;13688;53.154;18.136;2024-03-25T11:15:41;99559.30;;;9.52;100.00
25869;BME280;13688;53.154;18.136;2024-03-25T11:21:07;99558.17;;;8.75;100.00
25869;BME280;13688;53.154;18.136;2024-03-25T11:26:39;99558.14;;;8.66;100.00
25869;BME280;13688;53.154;18.136;2024-03-25T11:31:59;99553.63;;;8.66;100.00
25869;BME280;13688;53.154;18.136;2024-03-25T11:37:23;99562.58;;;8.25;100.00
25869;BME280;13688;53.154;18.136;2024-03-25T11:42:47;99570.17;;;7.78;100.00
25869;BME280;13688;53.154;18.136;2024-03-25T11:48:13;99562.62;;;7.51;100.00
25869;BME280;13688;53.154;18.136;2024-03-25T11:53:38;99587.31;;;7.55;100.00
25869;BME280;13688;53.154;18.136;2024-03-25T11:59:01;99589.42;;;6.97;100.00
25869;BME280;13688;53.154;18.136;2024-03-25T12:04:24;99591.24;;;6.74;100.00
25869;BME280;13688;53.154;18.136;2024-03-25T12:09:47;99599.14;;;6.42;100.00
25869;BME280;13688;53.154;18.136;2024-03-25T12:15:22;99602.02;;;6.16;100.00
25869;BME280;13688;53.154;18.136;2024-03-25T12:20:46;99600.33;;;6.26;100.00
25869;BME280;13688;53.154;18.136;2024-03-25T12:26:09;99601.80;;;6.19;100.00
25869;BME280;13688;53.154;18.136;2024-03-25T12:31:32;99594.66;;;6.42;100.00
25869;BME280;13688;53.154;18.136;2024-03-25T12:37:02;99604.23;;;6.56;100.00
25869;BME280;13688;53.154;18.136;2024-03-25T12:42:26;99601.80;;;6.75;100.00
25869;BME280;13688;53.154;18.136;2024-03-25T12:47:51;99597.87;;;7.13;100.00
25869;BME280;13688;53.154;18.136;2024-03-25T12:53:16;99588.11;;;7.66;100.00
25869;BME280;13688;53.154;18.136;2024-03-25T12:58:38;99599.09;;;8.26;100.00
25869;BME280;13688;53.154;18.136;2024-03-25T13:04:01;99596.72;;;9.53;100.00
25869;BME280;13688;53.154;18.136;2024-03-25T13:09:24;99601.36;;;10.38;100.00
25869;BME280;13688;53.154;18.136;2024-03-25T13:14:47;99601.66;;;9.38;100.00
25869;BME280;13688;53.154;18.136;2024-03-25T13:20:10;99604.61;;;9.35;100.00
25869;BME280;13688;53.154;18.136;2024-03-25T13:25:33;99609.57;;;9.40;100.00
25869;BME280;13688;53.154;18.136;2024-03-25T13:30:56;99608.26;;;9.25;100.00
25869;BME280;13688;53.154;18.136;2024-03-25T13:36:18;99612.27;;;9.50;100.00
25869;BME280;13688;53.154;18.136;2024-03-25T13:41:42;99625.14;;;9.56;100.00
25869;BME280;13688;53.154;18.136;2024-03-25T13:47:05;99617.23;;;9.04;100.00
25869;BME280;13688;53.154;18.136;2024-03-25T13:52:29;99631.47;;;8.65;100.00
25869;BME280;13688;53.154;18.136;2024-03-25T13:57:51;99654.20;;;8.28;100.00
25869;BME280;13688;53.154;18.136;2024-03-25T14:03:15;99651.45;;;7.98;100.00
25869;BME280;13688;53.154;18.136;2024-03-25T14:08:38;99653.47;;;7.85;100.00
25869;BME280;13688;53.154;18.136;2024-03-25T14:14:01;99663.82;;;7.78;100.00
25869;BME280;13688;53.154;18.136;2024-03-25T14:19:23;99667.11;;;7.82;100.00
25869;BME280;13688;53.154;18.136;2024-03-25T14:24:46;99668.59;;;7.74;100.00
25869;BME280;13688;53.154;18.136;2024-03-25T14:30:09;99663.56;;;7.81;100.00
25869;BME280;13688;53.154;18.136;2024-03-25T14:35:32;99677.42;;;7.86;100.00
25869;BME280;13688;53.154;18.136;2024-03-25T14:40:54;99665.37;;;7.92;100.00
25869;BME280;13688;53.154;18.136;2024-03-25T14:46:17;99654.34;;;8.06;100.00
25869;BME280;13688;53.154;18.136;2024-03-25T14:51:40;99660.17;;;8.11;100.00
25869;BME280;13688;53.154;18.136;2024-03-25T14:57:03;99666.22;;;7.92;100.00
25869;BME280;13688;53.154;18.136;2024-03-25T15:02:25;99666.61;;;8.09;100.00
25869;BME280;13688;53.154;18.136;2024-03-25T15:07:48;99676.75;;;8.26;100.00
25869;BME280;13688;53.154;18.136;2024-03-25T15:13:10;99674.98;;;8.15;100.00
25869;BME280;13688;53.154;18.136;2024-03-25T15:18:32;99670.81;;;8.22;100.00
25869;BME280;13688;53.154;18.136;2024-03-25T15:23:55;99674.48;;;8.21;100.00
25869;BME280;13688;53.154;18.136;2024-03-25T15:29:17;99678.43;;;8.06;100.00
25869;BME280;13688;53.154;18.136;2024-03-25T15:34:40;99669.61;;;7.94;100.00
25869;BME280;13688;53.154;18.136;2024-03-25T15:40:03;99678.48;;;7.95;100.00
25869;BME280;13688;53.154;18.136;2024-03-25T15:45:27;99673.79;;;8.08;100.00
25869;BME280;13688;53.154;18.136;2024-03-25T15:50:51;99688.56;;;8.02;100.00
25869;BME280;13688;53.154;18.136;2024-03-25T15:56:15;99694.55;;;7.95;100.00
25869;BME280;13688;53.154;18.136;2024-03-25T16:01:38;99693.86;;;8.14;100.00
25869;BME280;13688;53.154;18.136;2024-03-25T16:07:00;99688.16;;;8.07;100.00
25869;BME280;13688;53.154;18.136;2024-03-25T16:12:23;99690.25;;;8.03;100.00
25869;BME280;13688;53.154;18.136;2024-03-25T16:17:46;99698.83;;;7.86;100.00
25869;BME280;13688;53.154;18.136;2024-03-25T16:23:08;99705.56;;;7.69;100.00
25869;BME280;13688;53.154;18.136;2024-03-25T16:28:31;99720.67;;;7.59;100.00
25869;BME280;13688;53.154;18.136;2024-03-25T16:33:53;99731.75;;;7.55;100.00
25869;BME280;13688;53.154;18.136;2024-03-25T16:39:16;99731.50;;;7.58;100.00
25869;BME280;13688;53.154;18.136;2024-03-25T16:50:54;99743.27;;;8.10;100.00
25869;BME280;13688;53.154;18.136;2024-03-25T16:56:18;99751.20;;;7.57;100.00
25869;BME280;13688;53.154;18.136;2024-03-25T17:01:40;99753.88;;;7.23;100.00
25869;BME280;13688;53.154;18.136;2024-03-25T17:07:06;99755.95;;;6.97;100.00
25869;BME280;13688;53.154;18.136;2024-03-25T17:12:28;99743.78;;;6.82;100.00
25869;BME280;13688;53.154;18.136;2024-03-25T17:17:51;99746.41;;;6.59;100.00
25869;BME280;13688;53.154;18.136;2024-03-25T17:23:17;99765.74;;;6.28;100.00
25869;BME280;13688;53.154;18.136;2024-03-25T17:28:39;99773.58;;;5.94;100.00
25869;BME280;13688;53.154;18.136;2024-03-25T17:34:02;99777.38;;;5.66;100.00
25869;BME280;13688;53.154;18.136;2024-03-25T17:39:24;99781.59;;;5.45;100.00
25869;BME280;13688;53.154;18.136;2024-03-25T17:44:50;99791.65;;;5.16;100.00
25869;BME280;13688;53.154;18.136;2024-03-25T17:50:13;99791.02;;;4.87;100.00
25869;BME280;13688;53.154;18.136;2024-03-25T17:55:36;99793.45;;;4.65;100.00
25869;BME280;13688;53.154;18.136;2024-03-25T18:01:00;99797.23;;;4.35;100.00
25869;BME280;13688;53.154;18.136;2024-03-25T18:06:23;99793.41;;;4.12;100.00
25869;BME280;13688;53.154;18.136;2024-03-25T18:11:46;99801.56;;;3.96;100.00
25869;BME280;13688;53.154;18.136;2024-03-25T18:17:10;99812.43;;;3.79;100.00
25869;BME280;13688;53.154;18.136;2024-03-25T18:22:32;99809.03;;;3.63;100.00
25869;BME280;13688;53.154;18.136;2024-03-25T18:27:55;99818.55;;;3.53;100.00
25869;BME280;13688;53.154;18.136;2024-03-25T18:33:29;99820.34;;;3.52;100.00
25869;BME280;13688;53.154;18.136;2024-03-25T18:38:52;99819.52;;;3.23;100.00
25869;BME280;13688;53.154;18.136;2024-03-25T18:44:15;99817.22;;;3.17;100.00
25869;BME280;13688;53.154;18.136;2024-03-25T18:49:39;99822.55;;;3.03;100.00
25869;BME280;13688;53.154;18.136;2024-03-25T18:55:05;99827.09;;;3.01;100.00
25869;BME280;13688;53.154;18.136;2024-03-25T19:00:26;99821.39;;;2.93;100.00
25869;BME280;13688;53.154;18.136;2024-03-25T19:05:48;99831.22;;;2.76;100.00
25869;BME280;13688;53.154;18.136;2024-03-25T19:11:11;99839.73;;;2.67;100.00
25869;BME280;13688;53.154;18.136;2024-03-25T19:16:34;99844.38;;;2.64;100.00
25869;BME280;13688;53.154;18.136;2024-03-25T19:21:57;99848.64;;;2.66;100.00
25869;BME280;13688;53.154;18.136;2024-03-25T19:27:20;99852.23;;;2.65;100.00
25869;BME280;13688;53.154;18.136;2024-03-25T19:32:43;99857.55;;;2.65;100.00
25869;BME280;13688;53.154;18.136;2024-03-25T19:38:06;99863.80;;;2.64;100.00
25869;BME280;13688;53.154;18.136;2024-03-25T19:43:29;99867.66;;;2.58;100.00
25869;BME280;13688;53.154;18.136;2024-03-25T19:48:51;99877.42;;;2.58;100.00
25869;BME280;13688;53.154;18.136;2024-03-25T19:54:13;99876.88;;;2.67;100.00
25869;BME280;13688;53.154;18.136;2024-03-25T19:59:36;99882.51;;;2.77;100.00
25869;BME280;13688;53.154;18.136;2024-03-25T20:04:58;99881.30;;;2.82;100.00
25869;BME280;13688;53.154;18.136;2024-03-25T20:10:21;99883.52;;;2.90;100.00
25869;BME280;13688;53.154;18.136;2024-03-25T20:15:44;99888.84;;;3.04;100.00
25869;BME280;13688;53.154;18.136;2024-03-25T20:21:07;99888.28;;;3.13;100.00
25869;BME280;13688;53.154;18.136;2024-03-25T20:26:29;99893.20;;;3.05;100.00
25869;BME280;13688;53.154;18.136;2024-03-25T20:31:53;99885.13;;;3.07;100.00
25869;BME280;13688;53.154;18.136;2024-03-25T20:37:16;99894.05;;;3.06;100.00
25869;BME280;13688;53.154;18.136;2024-03-25T20:42:39;99891.98;;;3.11;100.00
25869;BME280;13688;53.154;18.136;2024-03-25T20:48:02;99887.43;;;3.13;100.00
25869;BME280;13688;53.154;18.136;2024-03-25T20:53:25;99886.06;;;2.92;100.00
25869;BME280;13688;53.154;18.136;2024-03-25T20:58:47;99893.53;;;2.85;100.00
25869;BME280;13688;53.154;18.136;2024-03-25T21:04:09;99892.48;;;2.87;100.00
25869;BME280;13688;53.154;18.136;2024-03-25T21:09:32;99895.88;;;2.75;100.00
25869;BME280;13688;53.154;18.136;2024-03-25T21:14:54;99894.38;;;2.85;100.00
25869;BME280;13688;53.154;18.136;2024-03-25T21:20:17;99893.82;;;2.80;100.00
25869;BME280;13688;53.154;18.136;2024-03-25T21:25:39;99901.47;;;2.71;100.00
25869;BME280;13688;53.154;18.136;2024-03-25T21:31:02;99899.25;;;2.63;100.00
25869;BME280;13688;53.154;18.136;2024-03-25T21:36:24;99905.51;;;2.62;100.00
25869;BME280;13688;53.154;18.136;2024-03-25T21:41:47;99902.16;;;2.58;100.00
25869;BME280;13688;53.154;18.136;2024-03-25T21:47:09;99907.90;;;2.51;100.00
25869;BME280;13688;53.154;18.136;2024-03-25T21:52:32;99910.74;;;2.48;100.00
25869;BME280;13688;53.154;18.136;2024-03-25T21:57:54;99926.23;;;2.40;100.00
25869;BME280;13688;53.154;18.136;2024-03-25T22:03:17;99927.21;;;2.23;100.00
25869;BME280;13688;53.154;18.136;2024-03-25T22:08:41;99926.16;;;2.10;100.00
25869;BME280;13688;53.154;18.136;2024-03-25T22:14:03;99928.65;;;1.97;100.00
25869;BME280;13688;53.154;18.136;2024-03-25T22:19:26;99934.45;;;1.88;100.00
25869;BME280;13688;53.154;18.136;2024-03-25T22:24:50;99931.00;;;1.70;100.00
25869;BME280;13688;53.154;18.136;2024-03-25T22:30:13;99925.52;;;1.57;100.00
25869;BME280;13688;53.154;18.136;2024-03-25T22:35:35;99937.98;;;1.55;100.00
25869;BME280;13688;53.154;18.136;2024-03-25T22:41:00;99939.90;;;1.36;100.00
25869;BME280;13688;53.154;18.136;2024-03-25T22:46:23;99944.02;;;1.24;100.00
25869;BME280;13688;53.154;18.136;2024-03-25T22:51:45;99945.20;;;1.01;100.00
25869;BME280;13688;53.154;18.136;2024-03-25T22:57:08;99942.73;;;0.98;100.00
25869;BME280;13688;53.154;18.136;2024-03-25T23:02:30;99954.16;;;0.81;100.00
25869;BME280;13688;53.154;18.136;2024-03-25T23:07:52;99956.16;;;0.76;100.00
25869;BME280;13688;53.154;18.136;2024-03-25T23:13:15;99970.11;;;0.80;100.00
25869;BME280;13688;53.154;18.136;2024-03-25T23:18:37;99972.88;;;0.60;100.00
25869;BME280;13688;53.154;18.136;2024-03-25T23:24:00;99974.55;;;0.43;100.00
25869;BME280;13688;53.154;18.136;2024-03-25T23:29:22;99961.92;;;0.31;100.00
25869;BME280;13688;53.154;18.136;2024-03-25T23:34:48;99964.48;;;0.33;100.00
25869;BME280;13688;53.154;18.136;2024-03-25T23:40:10;99957.84;;;0.24;100.00
25869;BME280;13688;53.154;18.136;2024-03-25T23:45:33;99967.92;;;0.16;100.00
25869;BME280;13688;53.154;18.136;2024-03-25T23:50:56;99981.06;;;0.17;100.00
25869;BME280;13688;53.154;18.136;2024-03-25T23:56:18;99976.36;;;0.05;100.00
